createdAt,value
2022-10-02T00:01:19.760Z,100876.97
2022-10-02T00:03:48.566Z,100884.31
2022-10-02T00:06:22.337Z,100882.97
2022-10-02T00:08:55.776Z,100884.66
2022-10-02T00:11:25.081Z,100882.00
2022-10-02T00:13:57.351Z,100885.00
2022-10-02T00:16:29.801Z,100885.31
2022-10-02T00:18:57.958Z,100889.53
2022-10-02T00:21:37.884Z,100882.16
2022-10-02T00:24:09.691Z,100873.53
2022-10-02T00:26:42.046Z,100877.56
2022-10-02T00:29:29.199Z,100893.25
2022-10-02T00:32:10.274Z,100887.88
2022-10-02T00:34:48.632Z,100876.97
2022-10-02T00:37:27.200Z,100884.41
2022-10-02T00:40:11.227Z,100849.03
2022-10-02T00:43:03.758Z,100898.56
2022-10-02T00:46:05.118Z,100897.25
2022-10-02T00:48:50.006Z,100898.34
2022-10-02T00:51:29.794Z,100907.31
2022-10-02T00:54:08.691Z,100886.88
2022-10-02T00:56:45.806Z,100903.22
2022-10-02T00:59:32.868Z,100896.09
2022-10-02T01:02:07.281Z,100907.63
2022-10-02T01:04:37.458Z,100901.78
2022-10-02T01:07:07.333Z,100909.91
2022-10-02T01:09:35.506Z,100897.94
2022-10-02T01:12:05.253Z,100893.03
2022-10-02T01:14:34.708Z,100906.88
2022-10-02T01:17:03.378Z,100907.69
2022-10-02T01:19:38.115Z,100902.44
2022-10-02T01:22:12.386Z,100899.25
2022-10-02T01:24:48.601Z,100912.19
2022-10-02T01:27:16.592Z,100917.78
2022-10-02T01:29:45.437Z,100906.03
2022-10-02T01:32:13.151Z,100901.09
2022-10-02T01:34:41.395Z,100905.50
2022-10-02T01:37:09.949Z,100911.94
2022-10-02T01:39:38.304Z,100921.22
2022-10-02T01:42:07.339Z,100926.19
2022-10-02T01:44:35.193Z,100927.31
2022-10-02T01:47:08.298Z,100931.78
2022-10-02T01:49:47.182Z,100936.56
2022-10-02T01:52:27.367Z,100904.66
2022-10-02T01:55:26.245Z,100927.09
2022-10-02T01:58:06.186Z,100997.91
2022-10-02T02:00:51.156Z,100988.25
2022-10-02T02:03:23.828Z,100983.19
2022-10-02T02:05:57.361Z,100987.63
2022-10-02T02:08:31.696Z,100976.06
2022-10-02T02:11:11.011Z,100979.47
2022-10-02T02:13:46.305Z,100979.19
2022-10-02T02:16:23.107Z,100981.78
2022-10-02T02:18:54.545Z,100974.66
2022-10-02T02:21:28.848Z,100980.56
2022-10-02T02:23:58.770Z,100965.22
2022-10-02T02:26:29.122Z,100973.84
2022-10-02T02:29:03.439Z,100973.78
2022-10-02T02:31:37.319Z,100954.16
2022-10-02T02:34:09.688Z,100958.41
2022-10-02T02:36:42.227Z,100959.03
2022-10-02T02:39:13.147Z,100952.16
2022-10-02T02:41:46.039Z,100951.03
2022-10-02T02:44:19.514Z,100971.44
2022-10-02T02:47:07.598Z,100959.66
2022-10-02T02:49:49.790Z,100932.53
2022-10-02T02:52:22.664Z,100945.97
2022-10-02T02:54:55.005Z,100954.25
2022-10-02T02:57:29.037Z,100947.25
2022-10-02T03:00:00.173Z,100955.09
2022-10-02T03:02:28.014Z,100948.91
2022-10-02T03:04:55.729Z,100956.69
2022-10-02T03:07:23.456Z,100947.91
2022-10-02T03:10:01.480Z,100944.81
2022-10-02T03:12:39.833Z,100945.91
2022-10-02T03:15:30.645Z,100938.66
2022-10-02T03:18:16.362Z,100937.03
2022-10-02T03:20:50.307Z,100936.81
2022-10-02T03:23:24.860Z,100943.16
2022-10-02T03:26:00.034Z,100930.66
2022-10-02T03:28:54.441Z,100946.13
2022-10-02T03:31:26.153Z,100960.91
2022-10-02T03:33:54.651Z,100968.50
2022-10-02T03:36:24.610Z,100943.59
2022-10-02T03:39:19.860Z,100959.22
2022-10-02T03:41:42.140Z,100954.78
2022-10-02T03:44:09.826Z,100951.06
2022-10-02T03:46:39.436Z,100958.50
2022-10-02T03:49:07.439Z,100953.47
2022-10-02T03:51:35.124Z,100960.31
2022-10-02T03:54:02.830Z,100952.94
2022-10-02T03:56:37.737Z,100935.16
2022-10-02T03:59:15.894Z,100952.69
2022-10-02T04:01:50.255Z,100928.38
2022-10-02T04:04:23.855Z,100965.00
2022-10-02T04:06:56.891Z,100969.84
2022-10-02T04:09:30.475Z,100961.81
2022-10-02T04:12:02.518Z,100963.66
2022-10-02T04:14:36.395Z,100964.34
2022-10-02T04:17:09.390Z,100966.56
2022-10-02T04:19:42.511Z,100963.50
2022-10-02T04:22:18.031Z,100975.03
2022-10-02T04:24:50.427Z,100966.34
2022-10-02T04:27:23.136Z,100964.16
2022-10-02T04:29:56.170Z,100962.19
2022-10-02T04:32:27.514Z,100970.03
2022-10-02T04:34:55.559Z,100969.59
2022-10-02T04:37:57.834Z,100963.94
2022-10-02T04:40:36.537Z,100968.34
2022-10-02T04:43:19.782Z,100987.94
2022-10-02T04:45:59.820Z,100983.34
2022-10-02T04:48:47.340Z,100985.97
2022-10-02T04:51:28.008Z,100986.00
2022-10-02T04:54:13.204Z,100970.88
2022-10-02T04:56:56.877Z,100997.50
2022-10-02T04:59:40.705Z,100989.81
2022-10-02T05:02:24.721Z,100995.78
2022-10-02T05:05:16.892Z,100998.19
2022-10-02T05:08:00.043Z,100985.19
2022-10-02T05:10:50.230Z,100979.56
2022-10-02T05:13:47.973Z,100986.50
2022-10-02T05:16:33.902Z,100996.44
2022-10-02T05:19:14.531Z,100989.63
2022-10-02T05:22:05.438Z,100992.13
2022-10-02T05:24:47.834Z,101005.34
2022-10-02T05:27:30.898Z,100993.00
2022-10-02T05:30:08.139Z,100997.00
2022-10-02T05:32:56.076Z,100994.75
2022-10-02T05:35:37.213Z,100933.06
2022-10-02T05:38:20.633Z,100992.78
2022-10-02T05:40:58.854Z,101010.16
2022-10-02T05:43:34.318Z,101010.94
2022-10-02T05:46:09.536Z,101012.78
2022-10-02T05:48:42.163Z,101018.88
2022-10-02T05:51:14.866Z,101030.63
2022-10-02T05:53:50.316Z,101069.84
2022-10-02T05:56:23.710Z,101028.06
2022-10-02T05:58:54.637Z,101063.69
2022-10-02T06:01:27.119Z,101071.25
2022-10-02T06:04:06.780Z,101078.75
2022-10-02T06:06:40.009Z,101094.66
2022-10-02T06:09:19.843Z,101080.66
2022-10-02T06:11:52.621Z,101077.38
2022-10-02T06:14:26.909Z,101080.47
2022-10-02T06:16:58.686Z,101064.16
2022-10-02T06:19:31.327Z,101057.09
2022-10-02T06:22:05.853Z,101056.97
2022-10-02T06:24:39.998Z,101046.13
2022-10-02T06:27:16.451Z,101047.91
2022-10-02T06:29:51.123Z,101021.41
2022-10-02T06:32:27.696Z,101020.28
2022-10-02T06:34:56.792Z,101028.16
2022-10-02T06:37:50.867Z,101033.28
2022-10-02T06:40:42.844Z,101041.13
2022-10-02T06:43:21.504Z,101048.13
2022-10-02T06:45:58.445Z,101039.34
2022-10-02T06:48:34.481Z,101058.31
2022-10-02T06:51:12.218Z,101056.22
2022-10-02T06:54:04.720Z,101056.28
2022-10-02T06:56:46.882Z,101059.97
2022-10-02T06:59:26.930Z,101055.94
2022-10-02T07:02:05.190Z,101077.38
2022-10-02T07:04:59.625Z,101067.19
2022-10-02T07:07:44.612Z,101081.94
2022-10-02T07:10:31.488Z,101080.00
2022-10-02T07:13:17.787Z,101088.28
2022-10-02T07:16:17.263Z,101099.34
2022-10-02T07:19:01.527Z,101102.88
2022-10-02T07:21:39.109Z,101089.78
2022-10-02T07:24:27.078Z,101083.31
2022-10-02T07:26:58.703Z,101104.06
2022-10-02T07:29:38.776Z,101107.38
2022-10-02T07:32:36.456Z,101115.03
2022-10-02T07:35:19.577Z,101117.63
2022-10-02T07:37:59.029Z,101111.63
2022-10-02T07:40:37.554Z,101102.28
2022-10-02T07:43:18.031Z,101129.53
2022-10-02T07:45:53.910Z,101124.41
2022-10-02T07:48:47.318Z,101117.25
2022-10-02T07:51:43.150Z,101118.47
2022-10-02T07:54:32.084Z,101103.81
2022-10-02T07:57:09.647Z,101121.19
2022-10-02T07:59:43.381Z,101131.88
2022-10-02T08:02:25.444Z,101116.50
2022-10-02T08:04:58.813Z,101102.34
2022-10-02T08:07:28.334Z,101118.78
2022-10-02T08:09:58.666Z,101132.28
2022-10-02T08:12:31.700Z,101133.66
2022-10-02T08:15:02.054Z,101148.13
2022-10-02T08:17:36.916Z,101157.09
2022-10-02T08:20:14.533Z,101163.09
2022-10-02T08:22:47.386Z,101153.78
2022-10-02T08:25:21.941Z,101124.94
2022-10-02T08:27:57.694Z,101130.88
2022-10-02T08:30:25.496Z,101131.56
2022-10-02T08:32:55.220Z,101129.19
2022-10-02T08:35:29.115Z,101135.53
2022-10-02T08:38:13.960Z,101131.53
2022-10-02T08:41:05.042Z,101145.09
2022-10-02T08:44:02.964Z,101143.03
2022-10-02T08:46:58.558Z,101127.59
2022-10-02T08:50:30.081Z,101140.72
2022-10-02T08:53:28.639Z,101134.53
2022-10-02T08:56:20.433Z,101141.78
2022-10-02T08:59:25.993Z,101147.38
2022-10-02T09:02:33.706Z,101163.19
2022-10-02T09:05:39.449Z,101178.56
2022-10-02T09:08:48.949Z,101180.91
2022-10-02T09:11:58.921Z,101178.59
2022-10-02T09:14:50.602Z,101208.03
2022-10-02T09:17:32.305Z,101190.72
2022-10-02T09:20:34.246Z,101195.88
2022-10-02T09:23:29.067Z,101188.47
2022-10-02T09:26:08.624Z,101179.78
2022-10-02T09:29:03.457Z,101183.47
2022-10-02T09:32:04.180Z,101185.22
2022-10-02T09:34:53.658Z,101202.03
2022-10-02T09:37:59.670Z,101212.63
2022-10-02T09:40:58.457Z,101203.59
2022-10-02T09:44:03.530Z,101204.47
2022-10-02T09:47:05.042Z,101211.44
2022-10-02T09:50:12.700Z,101205.50
2022-10-02T09:53:31.518Z,101194.78
2022-10-02T09:56:39.746Z,101202.97
2022-10-02T09:59:39.827Z,101209.31
2022-10-02T10:02:39.624Z,101203.09
2022-10-02T10:05:40.269Z,101213.09
2022-10-02T10:08:26.150Z,101206.69
2022-10-02T10:11:09.418Z,101204.75
2022-10-02T10:14:00.508Z,101224.00
2022-10-02T10:16:57.837Z,101211.78
2022-10-02T10:19:59.720Z,101220.78
2022-10-02T10:22:53.190Z,101214.53
2022-10-02T10:25:50.206Z,101226.75
2022-10-02T10:28:55.238Z,101223.78
2022-10-02T10:32:00.346Z,101235.47
2022-10-02T10:35:08.787Z,101236.47
2022-10-02T10:38:12.912Z,101196.28
2022-10-02T10:41:04.500Z,101229.53
2022-10-02T10:44:29.385Z,101230.50
2022-10-02T10:47:26.311Z,101230.06
2022-10-02T10:50:26.600Z,101220.66
2022-10-02T10:53:42.924Z,101213.56
2022-10-02T10:56:37.124Z,101224.72
2022-10-02T10:59:35.922Z,101218.66
2022-10-02T11:02:24.535Z,101215.22
2022-10-02T11:05:07.730Z,101206.38
2022-10-02T11:07:53.594Z,101222.84
2022-10-02T11:10:39.588Z,101217.78
2022-10-02T11:13:22.717Z,101216.16
2022-10-02T11:16:15.002Z,101207.78
2022-10-02T11:19:09.147Z,101205.56
2022-10-02T11:21:59.766Z,101223.31
2022-10-02T11:24:58.984Z,101232.38
2022-10-02T11:27:48.760Z,101229.66
2022-10-02T11:30:23.299Z,101246.50
2022-10-02T11:33:22.958Z,101245.88
2022-10-02T11:36:08.793Z,101235.66
2022-10-02T11:38:53.558Z,101260.00
2022-10-02T11:41:45.074Z,101267.44
2022-10-02T11:44:24.769Z,101260.28
2022-10-02T11:47:20.482Z,101260.34
2022-10-02T11:50:25.218Z,101245.81
2022-10-02T11:53:34.503Z,101253.50
2022-10-02T11:56:22.598Z,101239.59
2022-10-02T11:59:01.331Z,101250.28
2022-10-02T12:01:36.808Z,101251.16
2022-10-02T12:04:23.051Z,101253.41
2022-10-02T12:07:08.962Z,101259.16
2022-10-02T12:09:49.799Z,101254.34
2022-10-02T12:12:32.608Z,101256.28
2022-10-02T12:15:10.743Z,101265.03
2022-10-02T12:17:55.691Z,101266.44
2022-10-02T12:20:56.911Z,101257.13
2022-10-02T12:23:52.273Z,101259.28
2022-10-02T12:26:55.740Z,101275.88
2022-10-02T12:30:01.413Z,101281.41
2022-10-02T12:32:44.405Z,101294.16
2022-10-02T12:35:27.647Z,101291.03
2022-10-02T12:38:06.258Z,101289.03
2022-10-02T12:40:43.791Z,101288.25
2022-10-02T12:43:27.890Z,101272.50
2022-10-02T12:46:14.211Z,101289.09
2022-10-02T12:49:03.979Z,101270.06
2022-10-02T12:51:37.269Z,101287.00
2022-10-02T12:54:53.353Z,101291.41
2022-10-02T12:57:50.674Z,101286.41
2022-10-02T13:00:20.765Z,101294.88
2022-10-02T13:03:21.456Z,101281.00
2022-10-02T13:06:10.770Z,101291.63
2022-10-02T13:09:00.802Z,101298.47
2022-10-02T13:11:41.069Z,101290.00
2022-10-02T13:14:33.174Z,101282.13
2022-10-02T13:17:15.049Z,101298.44
2022-10-02T13:19:56.325Z,101285.84
2022-10-02T13:22:34.728Z,101284.47
2022-10-02T13:25:22.769Z,101310.47
2022-10-02T13:28:01.802Z,101306.75
2022-10-02T13:30:35.666Z,101304.22
2022-10-02T13:33:21.356Z,101310.66
2022-10-02T13:35:59.855Z,101317.09
2022-10-02T13:38:59.423Z,101316.69
2022-10-02T13:41:42.488Z,101297.16
2022-10-02T13:44:22.160Z,101318.75
2022-10-02T13:47:04.827Z,101322.34
2022-10-02T13:49:54.131Z,101331.59
2022-10-02T13:52:32.467Z,101327.09
2022-10-02T13:55:22.909Z,101338.91
2022-10-02T13:58:27.700Z,101331.25
2022-10-02T14:01:05.075Z,101336.16
2022-10-02T14:03:49.493Z,101340.13
2022-10-02T14:06:23.007Z,101332.84
2022-10-02T14:09:07.482Z,101334.47
2022-10-02T14:11:49.609Z,101255.13
2022-10-02T14:14:30.565Z,101338.75
2022-10-02T14:17:10.111Z,101290.09
2022-10-02T14:20:00.467Z,101339.41
2022-10-02T14:22:38.516Z,101291.41
2022-10-02T14:25:23.877Z,101358.75
2022-10-02T14:28:26.628Z,101349.06
2022-10-02T14:31:08.963Z,101345.38
2022-10-02T14:33:58.684Z,101341.97
2022-10-02T14:36:35.179Z,101345.53
2022-10-02T14:39:23.806Z,101345.25
2022-10-02T14:42:21.577Z,101338.28
2022-10-02T14:45:13.234Z,101350.53
2022-10-02T14:48:05.387Z,101349.34
2022-10-02T14:50:59.891Z,101363.03
2022-10-02T14:54:00.245Z,101356.34
2022-10-02T14:56:54.157Z,101367.94
2022-10-02T15:00:00.905Z,101365.56
2022-10-02T15:02:47.441Z,101358.75
2022-10-02T15:05:38.967Z,101360.69
2022-10-02T15:08:14.484Z,101362.03
2022-10-02T15:10:42.563Z,101380.00
2022-10-02T15:13:24.333Z,101377.66
2022-10-02T15:16:10.797Z,101378.50
2022-10-02T15:18:45.837Z,101390.72
2022-10-02T15:21:26.766Z,101383.41
2022-10-02T15:23:58.914Z,101348.63
2022-10-02T15:26:42.737Z,101395.41
2022-10-02T15:29:21.766Z,101394.69
2022-10-02T15:32:18.898Z,101408.31
2022-10-02T15:34:54.942Z,101410.19
2022-10-02T15:37:27.490Z,101415.00
2022-10-02T15:40:16.882Z,101421.72
2022-10-02T15:42:58.556Z,101424.50
2022-10-02T15:45:46.464Z,101434.81
2022-10-02T15:48:34.457Z,101428.25
2022-10-02T15:51:12.734Z,101438.63
2022-10-02T15:53:55.583Z,101444.25
2022-10-02T15:56:39.804Z,101445.19
2022-10-02T15:59:26.446Z,101447.97
2022-10-02T16:02:04.766Z,101451.91
2022-10-02T16:04:39.525Z,101442.47
2022-10-02T16:07:42.692Z,101460.16
2022-10-02T16:10:24.663Z,101455.84
2022-10-02T16:13:27.036Z,101467.97
2022-10-02T16:16:01.905Z,101462.00
2022-10-02T16:18:52.559Z,101464.44
2022-10-02T16:21:36.896Z,101471.50
2022-10-02T16:24:24.212Z,101468.75
2022-10-02T16:27:19.626Z,101475.06
2022-10-02T16:30:05.355Z,101485.97
2022-10-02T16:32:43.015Z,101483.16
2022-10-02T16:35:26.174Z,101488.03
2022-10-02T16:38:01.036Z,101492.41
2022-10-02T16:40:39.825Z,101493.75
2022-10-02T16:43:43.283Z,101499.97
2022-10-02T16:46:14.977Z,101512.72
2022-10-02T16:48:52.788Z,101513.69
2022-10-02T16:51:45.674Z,101518.97
2022-10-02T16:54:24.914Z,101487.94
2022-10-02T16:56:57.323Z,101533.59
2022-10-02T16:59:31.210Z,101535.41
2022-10-02T17:02:18.183Z,101535.00
2022-10-02T17:04:56.836Z,101538.88
2022-10-02T17:07:43.984Z,101540.38
2022-10-02T17:10:25.755Z,101494.66
2022-10-02T17:13:01.425Z,101545.59
2022-10-02T17:15:42.117Z,101551.25
2022-10-02T17:18:23.674Z,101555.69
2022-10-02T17:20:55.032Z,101553.63
2022-10-02T17:23:29.318Z,101562.88
2022-10-02T17:26:02.783Z,101567.59
2022-10-02T17:28:39.141Z,101577.75
2022-10-02T17:31:34.600Z,101581.63
2022-10-02T17:34:17.839Z,101586.34
2022-10-02T17:36:53.740Z,101590.91
2022-10-02T17:39:37.601Z,101593.31
2022-10-02T17:42:16.859Z,101597.41
2022-10-02T17:44:53.717Z,101605.84
2022-10-02T17:47:37.762Z,101614.75
2022-10-02T17:50:32.534Z,101617.31
2022-10-02T17:53:29.971Z,101620.78
2022-10-02T17:56:29.100Z,101628.63
2022-10-02T17:59:33.048Z,101631.16
2022-10-02T18:02:07.513Z,101634.84
2022-10-02T18:04:53.592Z,101633.31
2022-10-02T18:07:40.767Z,101644.06
2022-10-02T18:10:18.904Z,101646.66
2022-10-02T18:13:02.481Z,101645.44
2022-10-02T18:15:59.931Z,101647.22
2022-10-02T18:18:38.988Z,101655.22
2022-10-02T18:21:23.888Z,101659.31
2022-10-02T18:24:15.501Z,101672.22
2022-10-02T18:27:04.588Z,101666.69
2022-10-02T18:29:45.704Z,101674.13
2022-10-02T18:32:35.999Z,101679.38
2022-10-02T18:35:28.297Z,101684.38
2022-10-02T18:38:12.056Z,101690.03
2022-10-02T18:40:57.618Z,101699.53
2022-10-02T18:43:45.977Z,101697.06
2022-10-02T18:46:24.260Z,101695.97
2022-10-02T18:49:09.319Z,101697.06
2022-10-02T18:52:05.153Z,101708.16
2022-10-02T18:54:43.726Z,101705.56
2022-10-02T18:57:26.308Z,101705.88
2022-10-02T19:00:04.564Z,101705.41
2022-10-02T19:02:53.079Z,101721.75
2022-10-02T19:05:27.166Z,101713.53
2022-10-02T19:08:08.595Z,101716.97
2022-10-02T19:10:44.991Z,101707.88
2022-10-02T19:13:18.310Z,101709.72
2022-10-02T19:15:48.468Z,101639.22
2022-10-02T19:18:18.984Z,101723.06
2022-10-02T19:20:53.447Z,101721.28
2022-10-02T19:23:38.408Z,101719.13
2022-10-02T19:26:17.841Z,101730.00
2022-10-02T19:28:49.192Z,101738.00
2022-10-02T19:31:22.807Z,101729.59
2022-10-02T19:33:56.784Z,101737.88
2022-10-02T19:36:30.418Z,101712.66
2022-10-02T19:39:02.451Z,101744.41
2022-10-02T19:41:35.911Z,101746.66
2022-10-02T19:44:08.199Z,101740.41
2022-10-02T19:46:39.456Z,101744.19
2022-10-02T19:49:09.610Z,101745.78
2022-10-02T19:51:46.026Z,101748.13
2022-10-02T19:54:19.891Z,101753.34
2022-10-02T19:56:50.421Z,101755.19
2022-10-02T19:59:20.639Z,101751.97
2022-10-02T20:01:52.326Z,101764.47
2022-10-02T20:04:22.777Z,101764.16
2022-10-02T20:06:54.013Z,101765.00
2022-10-02T20:09:28.462Z,101724.19
2022-10-02T20:12:01.885Z,101729.75
2022-10-02T20:14:36.414Z,101786.25
2022-10-02T20:17:10.295Z,101787.78
2022-10-02T20:19:45.361Z,101781.47
2022-10-02T20:22:24.097Z,101780.91
2022-10-02T20:24:57.596Z,101764.59
2022-10-02T20:27:38.517Z,101787.78
2022-10-02T20:30:12.169Z,101792.41
2022-10-02T20:32:46.361Z,101809.13
2022-10-02T20:35:19.905Z,101801.91
2022-10-02T20:37:50.529Z,101805.75
2022-10-02T20:40:22.070Z,101803.88
2022-10-02T20:42:58.372Z,101810.88
2022-10-02T20:45:34.324Z,101809.13
2022-10-02T20:49:03.168Z,101814.53
2022-10-02T20:51:45.058Z,101825.13
2022-10-02T20:54:33.444Z,101768.09
2022-10-02T20:57:29.881Z,101813.13
2022-10-02T21:00:17.118Z,101830.88
2022-10-02T21:03:29.551Z,101828.66
2022-10-02T21:06:28.517Z,101829.84
2022-10-02T21:09:40.810Z,101835.38
2022-10-02T21:12:36.030Z,101838.09
2022-10-02T21:15:23.684Z,101795.91
2022-10-02T21:18:21.832Z,101835.31
2022-10-02T21:21:23.245Z,101831.31
2022-10-02T21:24:13.779Z,101839.09
2022-10-02T21:27:21.010Z,101837.38
2022-10-02T21:30:03.366Z,101839.03
2022-10-02T21:33:05.086Z,101844.53
2022-10-02T21:35:42.114Z,101845.13
2022-10-02T21:38:31.065Z,101845.81
2022-10-02T21:41:24.105Z,101856.06
2022-10-02T21:44:18.083Z,101855.16
2022-10-02T21:47:07.357Z,101859.63
2022-10-02T21:50:18.613Z,101858.88
2022-10-02T21:53:32.423Z,101864.22
2022-10-02T21:56:24.659Z,101865.44
2022-10-02T21:59:26.825Z,101866.50
2022-10-02T22:02:24.386Z,101878.13
2022-10-02T22:05:24.722Z,101872.22
2022-10-02T22:08:01.889Z,101877.38
2022-10-02T22:10:36.683Z,101877.28
2022-10-02T22:13:21.008Z,101877.25
2022-10-02T22:16:02.000Z,101882.88
2022-10-02T22:18:42.179Z,101883.78
2022-10-02T22:21:33.538Z,101894.00
2022-10-02T22:24:13.236Z,101907.19
2022-10-02T22:27:00.139Z,101906.28
2022-10-02T22:29:37.179Z,101913.25
2022-10-02T22:32:41.393Z,101910.38
2022-10-02T22:35:19.625Z,101915.69
2022-10-02T22:38:00.432Z,101915.56
2022-10-02T22:40:42.457Z,101919.78
2022-10-02T22:43:19.256Z,101918.13
2022-10-02T22:45:51.888Z,101911.91
2022-10-02T22:48:32.154Z,101913.09
2022-10-02T22:51:05.846Z,101922.50
2022-10-02T22:53:39.472Z,101919.25
2022-10-02T22:56:21.098Z,101840.19
2022-10-02T22:58:57.963Z,101927.25
2022-10-02T23:01:38.858Z,101927.22
2022-10-02T23:04:18.866Z,101928.09
2022-10-02T23:06:51.458Z,101929.69
2022-10-02T23:09:23.897Z,101934.25
2022-10-02T23:12:02.034Z,101930.09
2022-10-02T23:14:39.946Z,101926.50
2022-10-02T23:17:16.024Z,101939.53
2022-10-02T23:19:48.010Z,101943.81
2022-10-02T23:22:26.209Z,101938.91
2022-10-02T23:25:01.856Z,101939.91
2022-10-02T23:27:39.511Z,101945.91
2022-10-02T23:30:12.301Z,101941.00
2022-10-02T23:32:47.297Z,101939.81
2022-10-02T23:35:22.386Z,101952.53
2022-10-02T23:37:57.875Z,101949.06
2022-10-02T23:40:44.709Z,101945.63
2022-10-02T23:43:18.003Z,101945.63
2022-10-02T23:45:51.739Z,101952.75
2022-10-02T23:48:19.981Z,101959.66
2022-10-02T23:50:55.645Z,101935.59
2022-10-02T23:53:44.859Z,101962.13
2022-10-02T23:56:45.236Z,101967.31
2022-10-02T23:59:29.684Z,101971.22
